sensor_id;sensor_type;location;lat;lon;timestamp;P1;durP1;ratioP1;P2;durP2;ratioP2
68583;SDS011;55557;49.220;11.150;2022-11-25T00:01:17;6.20;;;4.83;;
68583;SDS011;55557;49.220;11.150;2022-11-25T00:03:43;5.07;;;4.37;;
68583;SDS011;55557;49.220;11.150;2022-11-25T00:08:36;9.03;;;4.53;;
68583;SDS011;55557;49.220;11.150;2022-11-25T00:11:03;7.50;;;4.23;;
68583;SDS011;55557;49.220;11.150;2022-11-25T00:13:29;7.60;;;3.90;;
68583;SDS011;55557;49.220;11.150;2022-11-25T00:15:55;8.17;;;3.87;;
68583;SDS011;55557;49.220;11.150;2022-11-25T00:18:21;6.57;;;3.73;;
68583;SDS011;55557;49.220;11.150;2022-11-25T00:20:47;6.80;;;4.33;;
68583;SDS011;55557;49.220;11.150;2022-11-25T00:23:13;6.37;;;3.67;;
68583;SDS011;55557;49.220;11.150;2022-11-25T00:25:39;11.97;;;5.20;;
68583;SDS011;55557;49.220;11.150;2022-11-25T00:28:05;10.97;;;5.17;;
68583;SDS011;55557;49.220;11.150;2022-11-25T00:30:31;8.57;;;4.67;;
68583;SDS011;55557;49.220;11.150;2022-11-25T00:32:57;7.33;;;4.60;;
68583;SDS011;55557;49.220;11.150;2022-11-25T00:35:23;9.00;;;5.40;;
68583;SDS011;55557;49.220;11.150;2022-11-25T00:37:49;13.17;;;4.90;;
68583;SDS011;55557;49.220;11.150;2022-11-25T00:40:15;10.10;;;4.90;;
68583;SDS011;55557;49.220;11.150;2022-11-25T00:42:41;10.63;;;5.00;;
68583;SDS011;55557;49.220;11.150;2022-11-25T00:45:25;5.00;;;3.90;;
68583;SDS011;55557;49.220;11.150;2022-11-25T00:47:52;6.40;;;4.13;;
68583;SDS011;55557;49.220;11.150;2022-11-25T00:50:18;10.83;;;4.83;;
68583;SDS011;55557;49.220;11.150;2022-11-25T00:52:44;7.87;;;4.27;;
68583;SDS011;55557;49.220;11.150;2022-11-25T00:55:10;5.33;;;3.97;;
68583;SDS011;55557;49.220;11.150;2022-11-25T00:57:36;5.07;;;3.90;;
68583;SDS011;55557;49.220;11.150;2022-11-25T01:00:02;5.30;;;4.03;;
68583;SDS011;55557;49.220;11.150;2022-11-25T01:02:28;6.83;;;4.37;;
68583;SDS011;55557;49.220;11.150;2022-11-25T01:04:54;7.83;;;4.30;;
68583;SDS011;55557;49.220;11.150;2022-11-25T01:07:20;7.90;;;4.80;;
68583;SDS011;55557;49.220;11.150;2022-11-25T01:09:46;5.03;;;3.90;;
68583;SDS011;55557;49.220;11.150;2022-11-25T01:12:13;3.73;;;3.33;;
68583;SDS011;55557;49.220;11.150;2022-11-25T01:14:39;5.67;;;3.80;;
68583;SDS011;55557;49.220;11.150;2022-11-25T01:17:05;5.30;;;3.30;;
68583;SDS011;55557;49.220;11.150;2022-11-25T01:19:31;6.60;;;3.50;;
68583;SDS011;55557;49.220;11.150;2022-11-25T01:21:57;6.83;;;3.53;;
68583;SDS011;55557;49.220;11.150;2022-11-25T01:24:23;5.97;;;3.43;;
68583;SDS011;55557;49.220;11.150;2022-11-25T01:26:50;5.93;;;3.53;;
68583;SDS011;55557;49.220;11.150;2022-11-25T01:29:18;5.97;;;3.50;;
68583;SDS011;55557;49.220;11.150;2022-11-25T01:31:45;3.57;;;3.13;;
68583;SDS011;55557;49.220;11.150;2022-11-25T01:34:13;9.27;;;3.30;;
68583;SDS011;55557;49.220;11.150;2022-11-25T01:36:39;6.67;;;3.90;;
68583;SDS011;55557;49.220;11.150;2022-11-25T01:39:05;4.43;;;3.13;;
68583;SDS011;55557;49.220;11.150;2022-11-25T01:41:32;6.50;;;3.57;;
68583;SDS011;55557;49.220;11.150;2022-11-25T01:44:09;6.83;;;3.67;;
68583;SDS011;55557;49.220;11.150;2022-11-25T01:46:54;4.87;;;3.07;;
68583;SDS011;55557;49.220;11.150;2022-11-25T01:51:57;7.50;;;3.47;;
68583;SDS011;55557;49.220;11.150;2022-11-25T01:54:26;8.30;;;3.57;;
68583;SDS011;55557;49.220;11.150;2022-11-25T01:56:55;3.17;;;2.67;;
68583;SDS011;55557;49.220;11.150;2022-11-25T01:59:22;4.70;;;2.97;;
68583;SDS011;55557;49.220;11.150;2022-11-25T02:01:49;4.17;;;2.70;;
68583;SDS011;55557;49.220;11.150;2022-11-25T02:04:15;7.87;;;3.33;;
68583;SDS011;55557;49.220;11.150;2022-11-25T02:06:49;4.43;;;3.33;;
68583;SDS011;55557;49.220;11.150;2022-11-25T02:09:17;7.10;;;3.70;;
68583;SDS011;55557;49.220;11.150;2022-11-25T02:11:43;7.37;;;2.63;;
68583;SDS011;55557;49.220;11.150;2022-11-25T02:14:11;6.00;;;3.67;;
68583;SDS011;55557;49.220;11.150;2022-11-25T02:16:38;5.23;;;4.00;;
68583;SDS011;55557;49.220;11.150;2022-11-25T02:19:05;5.80;;;3.13;;
68583;SDS011;55557;49.220;11.150;2022-11-25T02:21:35;3.37;;;2.53;;
68583;SDS011;55557;49.220;11.150;2022-11-25T02:24:07;3.77;;;2.93;;
68583;SDS011;55557;49.220;11.150;2022-11-25T02:26:35;5.13;;;2.80;;
68583;SDS011;55557;49.220;11.150;2022-11-25T02:29:02;4.33;;;3.00;;
68583;SDS011;55557;49.220;11.150;2022-11-25T02:31:28;6.97;;;3.30;;
68583;SDS011;55557;49.220;11.150;2022-11-25T02:33:54;5.63;;;2.87;;
68583;SDS011;55557;49.220;11.150;2022-11-25T02:36:20;5.33;;;3.00;;
68583;SDS011;55557;49.220;11.150;2022-11-25T02:38:54;5.03;;;3.37;;
68583;SDS011;55557;49.220;11.150;2022-11-25T02:41:21;3.00;;;2.57;;
68583;SDS011;55557;49.220;11.150;2022-11-25T02:43:49;3.30;;;2.50;;
68583;SDS011;55557;49.220;11.150;2022-11-25T02:46:20;4.53;;;3.07;;
68583;SDS011;55557;49.220;11.150;2022-11-25T02:48:47;6.73;;;3.30;;
68583;SDS011;55557;49.220;11.150;2022-11-25T02:51:15;6.47;;;2.93;;
68583;SDS011;55557;49.220;11.150;2022-11-25T02:53:41;3.90;;;2.80;;
68583;SDS011;55557;49.220;11.150;2022-11-25T02:56:08;4.70;;;2.83;;
68583;SDS011;55557;49.220;11.150;2022-11-25T02:58:34;7.00;;;3.23;;
68583;SDS011;55557;49.220;11.150;2022-11-25T03:01:00;9.93;;;3.00;;
68583;SDS011;55557;49.220;11.150;2022-11-25T03:03:26;3.63;;;3.23;;
68583;SDS011;55557;49.220;11.150;2022-11-25T03:05:53;8.97;;;3.07;;
68583;SDS011;55557;49.220;11.150;2022-11-25T03:08:19;6.33;;;3.40;;
68583;SDS011;55557;49.220;11.150;2022-11-25T03:10:45;4.13;;;3.13;;
68583;SDS011;55557;49.220;11.150;2022-11-25T03:13:11;6.07;;;2.67;;
68583;SDS011;55557;49.220;11.150;2022-11-25T03:15:37;5.90;;;3.60;;
68583;SDS011;55557;49.220;11.150;2022-11-25T03:18:03;4.20;;;2.53;;
68583;SDS011;55557;49.220;11.150;2022-11-25T03:20:29;3.90;;;2.80;;
68583;SDS011;55557;49.220;11.150;2022-11-25T03:22:55;4.07;;;2.97;;
68583;SDS011;55557;49.220;11.150;2022-11-25T03:25:21;3.63;;;2.70;;
68583;SDS011;55557;49.220;11.150;2022-11-25T03:27:48;4.30;;;3.10;;
68583;SDS011;55557;49.220;11.150;2022-11-25T03:30:18;4.03;;;2.77;;
68583;SDS011;55557;49.220;11.150;2022-11-25T03:32:44;4.10;;;2.97;;
68583;SDS011;55557;49.220;11.150;2022-11-25T03:35:11;6.03;;;3.00;;
68583;SDS011;55557;49.220;11.150;2022-11-25T03:37:38;3.33;;;3.00;;
68583;SDS011;55557;49.220;11.150;2022-11-25T03:40:04;2.80;;;2.10;;
68583;SDS011;55557;49.220;11.150;2022-11-25T03:42:30;5.83;;;3.00;;
68583;SDS011;55557;49.220;11.150;2022-11-25T03:44:56;4.13;;;2.70;;
68583;SDS011;55557;49.220;11.150;2022-11-25T03:47:23;3.00;;;2.40;;
68583;SDS011;55557;49.220;11.150;2022-11-25T03:49:49;6.23;;;3.30;;
68583;SDS011;55557;49.220;11.150;2022-11-25T03:52:15;5.07;;;2.63;;
68583;SDS011;55557;49.220;11.150;2022-11-25T03:54:41;4.77;;;3.53;;
68583;SDS011;55557;49.220;11.150;2022-11-25T03:57:07;5.57;;;3.27;;
68583;SDS011;55557;49.220;11.150;2022-11-25T03:59:33;4.30;;;2.93;;
68583;SDS011;55557;49.220;11.150;2022-11-25T04:01:59;5.17;;;3.07;;
68583;SDS011;55557;49.220;11.150;2022-11-25T04:04:25;4.47;;;2.60;;
68583;SDS011;55557;49.220;11.150;2022-11-25T04:06:51;4.93;;;2.80;;
68583;SDS011;55557;49.220;11.150;2022-11-25T04:09:17;5.33;;;3.23;;
68583;SDS011;55557;49.220;11.150;2022-11-25T04:11:43;3.87;;;2.97;;
68583;SDS011;55557;49.220;11.150;2022-11-25T04:14:28;4.70;;;3.17;;
68583;SDS011;55557;49.220;11.150;2022-11-25T04:16:54;4.33;;;2.63;;
68583;SDS011;55557;49.220;11.150;2022-11-25T04:19:20;5.50;;;2.97;;
68583;SDS011;55557;49.220;11.150;2022-11-25T04:21:46;6.20;;;4.60;;
68583;SDS011;55557;49.220;11.150;2022-11-25T04:24:12;8.33;;;5.20;;
68583;SDS011;55557;49.220;11.150;2022-11-25T04:26:38;5.87;;;4.53;;
68583;SDS011;55557;49.220;11.150;2022-11-25T04:29:04;8.30;;;4.83;;
68583;SDS011;55557;49.220;11.150;2022-11-25T04:31:30;6.57;;;4.03;;
68583;SDS011;55557;49.220;11.150;2022-11-25T04:33:56;6.23;;;4.17;;
68583;SDS011;55557;49.220;11.150;2022-11-25T04:36:22;5.17;;;4.10;;
68583;SDS011;55557;49.220;11.150;2022-11-25T04:38:48;6.93;;;3.87;;
68583;SDS011;55557;49.220;11.150;2022-11-25T04:41:14;6.20;;;3.27;;
68583;SDS011;55557;49.220;11.150;2022-11-25T04:43:40;8.13;;;4.67;;
68583;SDS011;55557;49.220;11.150;2022-11-25T04:46:06;6.40;;;4.43;;
68583;SDS011;55557;49.220;11.150;2022-11-25T04:48:32;7.73;;;3.43;;
68583;SDS011;55557;49.220;11.150;2022-11-25T04:50:58;12.73;;;4.20;;
68583;SDS011;55557;49.220;11.150;2022-11-25T04:53:24;3.47;;;2.97;;
68583;SDS011;55557;49.220;11.150;2022-11-25T04:55:50;6.60;;;3.70;;
68583;SDS011;55557;49.220;11.150;2022-11-25T04:58:16;6.10;;;4.23;;
68583;SDS011;55557;49.220;11.150;2022-11-25T05:01:02;4.73;;;3.70;;
68583;SDS011;55557;49.220;11.150;2022-11-25T05:03:28;7.60;;;4.13;;
68583;SDS011;55557;49.220;11.150;2022-11-25T05:05:54;6.70;;;4.30;;
68583;SDS011;55557;49.220;11.150;2022-11-25T05:08:20;7.83;;;4.23;;
68583;SDS011;55557;49.220;11.150;2022-11-25T05:10:46;6.63;;;3.60;;
68583;SDS011;55557;49.220;11.150;2022-11-25T05:13:12;5.13;;;3.70;;
68583;SDS011;55557;49.220;11.150;2022-11-25T05:15:38;11.77;;;5.03;;
68583;SDS011;55557;49.220;11.150;2022-11-25T05:18:04;3.83;;;3.43;;
68583;SDS011;55557;49.220;11.150;2022-11-25T05:20:30;7.13;;;4.83;;
68583;SDS011;55557;49.220;11.150;2022-11-25T05:22:56;8.73;;;5.30;;
68583;SDS011;55557;49.220;11.150;2022-11-25T05:25:22;8.80;;;4.93;;
68583;SDS011;55557;49.220;11.150;2022-11-25T05:27:50;10.33;;;5.53;;
68583;SDS011;55557;49.220;11.150;2022-11-25T05:30:16;4.50;;;3.77;;
68583;SDS011;55557;49.220;11.150;2022-11-25T05:32:42;8.73;;;4.37;;
68583;SDS011;55557;49.220;11.150;2022-11-25T05:35:09;6.60;;;4.20;;
68583;SDS011;55557;49.220;11.150;2022-11-25T05:37:35;6.60;;;5.40;;
68583;SDS011;55557;49.220;11.150;2022-11-25T05:40:01;8.70;;;5.43;;
68583;SDS011;55557;49.220;11.150;2022-11-25T05:42:28;7.27;;;5.23;;
68583;SDS011;55557;49.220;11.150;2022-11-25T05:44:54;9.97;;;5.53;;
68583;SDS011;55557;49.220;11.150;2022-11-25T05:47:20;7.30;;;5.73;;
68583;SDS011;55557;49.220;11.150;2022-11-25T05:49:46;8.33;;;5.63;;
68583;SDS011;55557;49.220;11.150;2022-11-25T05:52:12;12.73;;;6.13;;
68583;SDS011;55557;49.220;11.150;2022-11-25T05:54:38;9.27;;;6.03;;
68583;SDS011;55557;49.220;11.150;2022-11-25T05:57:04;9.17;;;5.90;;
68583;SDS011;55557;49.220;11.150;2022-11-25T05:59:30;10.10;;;6.27;;
68583;SDS011;55557;49.220;11.150;2022-11-25T06:01:56;8.60;;;5.80;;
68583;SDS011;55557;49.220;11.150;2022-11-25T06:04:22;7.57;;;5.27;;
68583;SDS011;55557;49.220;11.150;2022-11-25T06:06:48;13.60;;;5.07;;
68583;SDS011;55557;49.220;11.150;2022-11-25T06:09:14;8.73;;;4.47;;
68583;SDS011;55557;49.220;11.150;2022-11-25T06:11:40;5.00;;;4.07;;
68583;SDS011;55557;49.220;11.150;2022-11-25T06:14:06;11.20;;;4.17;;
68583;SDS011;55557;49.220;11.150;2022-11-25T06:16:32;5.43;;;4.00;;
68583;SDS011;55557;49.220;11.150;2022-11-25T06:19:00;5.10;;;3.73;;
68583;SDS011;55557;49.220;11.150;2022-11-25T06:21:29;6.03;;;3.93;;
68583;SDS011;55557;49.220;11.150;2022-11-25T06:23:55;6.27;;;4.13;;
68583;SDS011;55557;49.220;11.150;2022-11-25T06:26:21;5.60;;;3.70;;
68583;SDS011;55557;49.220;11.150;2022-11-25T06:28:47;6.73;;;4.87;;
68583;SDS011;55557;49.220;11.150;2022-11-25T06:31:18;6.07;;;4.20;;
68583;SDS011;55557;49.220;11.150;2022-11-25T06:33:45;6.23;;;4.27;;
68583;SDS011;55557;49.220;11.150;2022-11-25T06:36:11;7.23;;;4.20;;
68583;SDS011;55557;49.220;11.150;2022-11-25T06:38:41;4.80;;;3.67;;
68583;SDS011;55557;49.220;11.150;2022-11-25T06:41:07;6.83;;;4.40;;
68583;SDS011;55557;49.220;11.150;2022-11-25T06:43:33;5.20;;;4.23;;
68583;SDS011;55557;49.220;11.150;2022-11-25T06:46:03;5.97;;;4.60;;
68583;SDS011;55557;49.220;11.150;2022-11-25T06:48:30;4.80;;;4.03;;
68583;SDS011;55557;49.220;11.150;2022-11-25T06:50:57;5.53;;;3.70;;
68583;SDS011;55557;49.220;11.150;2022-11-25T06:53:23;6.20;;;4.73;;
68583;SDS011;55557;49.220;11.150;2022-11-25T06:55:55;6.47;;;4.07;;
68583;SDS011;55557;49.220;11.150;2022-11-25T06:58:25;9.73;;;4.93;;
68583;SDS011;55557;49.220;11.150;2022-11-25T07:00:51;8.50;;;4.63;;
68583;SDS011;55557;49.220;11.150;2022-11-25T07:03:17;5.30;;;3.93;;
68583;SDS011;55557;49.220;11.150;2022-11-25T07:05:43;7.67;;;4.03;;
68583;SDS011;55557;49.220;11.150;2022-11-25T07:08:09;5.90;;;4.10;;
68583;SDS011;55557;49.220;11.150;2022-11-25T07:10:35;7.03;;;4.23;;
68583;SDS011;55557;49.220;11.150;2022-11-25T07:13:01;4.47;;;3.83;;
68583;SDS011;55557;49.220;11.150;2022-11-25T07:15:27;10.85;;;5.63;;
68583;SDS011;55557;49.220;11.150;2022-11-25T07:17:53;7.33;;;4.57;;
68583;SDS011;55557;49.220;11.150;2022-11-25T07:20:19;7.87;;;4.70;;
68583;SDS011;55557;49.220;11.150;2022-11-25T07:22:45;6.57;;;4.63;;
68583;SDS011;55557;49.220;11.150;2022-11-25T07:25:11;7.40;;;4.50;;
68583;SDS011;55557;49.220;11.150;2022-11-25T07:27:37;8.30;;;4.90;;
68583;SDS011;55557;49.220;11.150;2022-11-25T07:30:03;6.50;;;4.43;;
68583;SDS011;55557;49.220;11.150;2022-11-25T07:32:31;6.73;;;4.90;;
68583;SDS011;55557;49.220;11.150;2022-11-25T07:34:58;9.97;;;5.03;;
68583;SDS011;55557;49.220;11.150;2022-11-25T07:37:24;7.60;;;4.00;;
68583;SDS011;55557;49.220;11.150;2022-11-25T07:39:51;6.13;;;4.63;;
68583;SDS011;55557;49.220;11.150;2022-11-25T07:42:17;7.67;;;4.37;;
68583;SDS011;55557;49.220;11.150;2022-11-25T07:44:43;6.07;;;4.67;;
68583;SDS011;55557;49.220;11.150;2022-11-25T07:47:09;7.57;;;5.00;;
68583;SDS011;55557;49.220;11.150;2022-11-25T07:49:35;7.33;;;5.03;;
68583;SDS011;55557;49.220;11.150;2022-11-25T07:52:01;7.57;;;4.90;;
68583;SDS011;55557;49.220;11.150;2022-11-25T07:54:28;7.03;;;5.20;;
68583;SDS011;55557;49.220;11.150;2022-11-25T07:56:55;7.20;;;4.67;;
68583;SDS011;55557;49.220;11.150;2022-11-25T07:59:21;6.50;;;4.97;;
68583;SDS011;55557;49.220;11.150;2022-11-25T08:01:48;10.37;;;5.40;;
68583;SDS011;55557;49.220;11.150;2022-11-25T08:04:14;7.13;;;5.30;;
68583;SDS011;55557;49.220;11.150;2022-11-25T08:06:41;13.17;;;5.73;;
68583;SDS011;55557;49.220;11.150;2022-11-25T08:09:09;8.70;;;5.30;;
68583;SDS011;55557;49.220;11.150;2022-11-25T08:11:35;7.73;;;4.77;;
68583;SDS011;55557;49.220;11.150;2022-11-25T08:14:02;6.47;;;4.97;;
68583;SDS011;55557;49.220;11.150;2022-11-25T08:16:28;7.83;;;6.07;;
68583;SDS011;55557;49.220;11.150;2022-11-25T08:18:58;7.03;;;6.23;;
68583;SDS011;55557;49.220;11.150;2022-11-25T08:21:25;8.63;;;6.23;;
68583;SDS011;55557;49.220;11.150;2022-11-25T08:26:54;7.97;;;4.87;;
68583;SDS011;55557;49.220;11.150;2022-11-25T08:29:22;8.00;;;4.73;;
68583;SDS011;55557;49.220;11.150;2022-11-25T08:31:48;8.50;;;5.67;;
68583;SDS011;55557;49.220;11.150;2022-11-25T08:34:18;14.53;;;4.93;;
68583;SDS011;55557;49.220;11.150;2022-11-25T08:36:45;11.83;;;4.87;;
68583;SDS011;55557;49.220;11.150;2022-11-25T08:39:11;8.93;;;5.03;;
68583;SDS011;55557;49.220;11.150;2022-11-25T08:41:37;13.93;;;5.60;;
68583;SDS011;55557;49.220;11.150;2022-11-25T08:44:04;9.57;;;5.90;;
68583;SDS011;55557;49.220;11.150;2022-11-25T08:46:32;5.93;;;4.47;;
68583;SDS011;55557;49.220;11.150;2022-11-25T08:49:00;9.43;;;5.10;;
68583;SDS011;55557;49.220;11.150;2022-11-25T08:51:27;7.57;;;5.10;;
68583;SDS011;55557;49.220;11.150;2022-11-25T08:53:54;8.00;;;4.70;;
68583;SDS011;55557;49.220;11.150;2022-11-25T08:56:20;7.57;;;4.63;;
68583;SDS011;55557;49.220;11.150;2022-11-25T08:58:47;8.60;;;4.40;;
68583;SDS011;55557;49.220;11.150;2022-11-25T09:01:13;7.20;;;4.43;;
68583;SDS011;55557;49.220;11.150;2022-11-25T09:03:42;9.27;;;4.83;;
68583;SDS011;55557;49.220;11.150;2022-11-25T09:06:09;5.90;;;4.77;;
68583;SDS011;55557;49.220;11.150;2022-11-25T09:08:36;14.73;;;4.90;;
68583;SDS011;55557;49.220;11.150;2022-11-25T09:11:02;7.00;;;5.00;;
68583;SDS011;55557;49.220;11.150;2022-11-25T09:13:28;7.87;;;4.63;;
68583;SDS011;55557;49.220;11.150;2022-11-25T09:15:55;5.50;;;4.13;;
68583;SDS011;55557;49.220;11.150;2022-11-25T09:18:21;6.57;;;4.50;;
68583;SDS011;55557;49.220;11.150;2022-11-25T09:20:53;9.13;;;4.70;;
68583;SDS011;55557;49.220;11.150;2022-11-25T09:23:20;7.67;;;4.77;;
68583;SDS011;55557;49.220;11.150;2022-11-25T09:25:50;6.53;;;4.67;;
68583;SDS011;55557;49.220;11.150;2022-11-25T09:28:17;8.53;;;5.00;;
68583;SDS011;55557;49.220;11.150;2022-11-25T09:30:43;7.53;;;5.33;;
68583;SDS011;55557;49.220;11.150;2022-11-25T09:33:09;7.60;;;5.30;;
68583;SDS011;55557;49.220;11.150;2022-11-25T09:35:35;5.93;;;4.63;;
68583;SDS011;55557;49.220;11.150;2022-11-25T09:38:01;7.20;;;5.43;;
68583;SDS011;55557;49.220;11.150;2022-11-25T09:42:55;9.40;;;5.20;;
68583;SDS011;55557;49.220;11.150;2022-11-25T09:51:02;6.67;;;4.80;;
68583;SDS011;55557;49.220;11.150;2022-11-25T09:53:42;7.40;;;5.00;;
68583;SDS011;55557;49.220;11.150;2022-11-25T09:56:21;8.93;;;5.00;;
68583;SDS011;55557;49.220;11.150;2022-11-25T09:58:51;10.93;;;5.23;;
68583;SDS011;55557;49.220;11.150;2022-11-25T10:01:20;8.10;;;5.77;;
68583;SDS011;55557;49.220;11.150;2022-11-25T10:03:49;9.60;;;6.87;;
68583;SDS011;55557;49.220;11.150;2022-11-25T10:06:24;8.40;;;5.80;;
68583;SDS011;55557;49.220;11.150;2022-11-25T10:08:55;5.37;;;4.50;;
68583;SDS011;55557;49.220;11.150;2022-11-25T10:19:38;7.57;;;4.73;;
68583;SDS011;55557;49.220;11.150;2022-11-25T10:22:16;8.03;;;5.03;;
68583;SDS011;55557;49.220;11.150;2022-11-25T10:24:44;6.80;;;4.67;;
68583;SDS011;55557;49.220;11.150;2022-11-25T10:27:14;8.73;;;6.03;;
68583;SDS011;55557;49.220;11.150;2022-11-25T10:29:42;10.27;;;4.80;;
68583;SDS011;55557;49.220;11.150;2022-11-25T10:32:17;9.17;;;6.90;;
68583;SDS011;55557;49.220;11.150;2022-11-25T10:34:46;10.73;;;6.23;;
68583;SDS011;55557;49.220;11.150;2022-11-25T10:37:18;8.53;;;5.40;;
68583;SDS011;55557;49.220;11.150;2022-11-25T10:39:47;6.13;;;5.00;;
68583;SDS011;55557;49.220;11.150;2022-11-25T10:42:14;9.67;;;6.20;;
68583;SDS011;55557;49.220;11.150;2022-11-25T10:44:43;7.57;;;5.67;;
68583;SDS011;55557;49.220;11.150;2022-11-25T10:47:31;8.47;;;5.60;;
68583;SDS011;55557;49.220;11.150;2022-11-25T10:52:32;9.30;;;6.00;;
68583;SDS011;55557;49.220;11.150;2022-11-25T10:55:13;9.53;;;6.07;;
68583;SDS011;55557;49.220;11.150;2022-11-25T10:57:39;9.10;;;6.73;;
68583;SDS011;55557;49.220;11.150;2022-11-25T11:00:06;8.07;;;4.87;;
68583;SDS011;55557;49.220;11.150;2022-11-25T11:07:26;6.40;;;4.73;;
68583;SDS011;55557;49.220;11.150;2022-11-25T11:09:52;8.47;;;4.67;;
68583;SDS011;55557;49.220;11.150;2022-11-25T11:12:22;10.33;;;4.30;;
68583;SDS011;55557;49.220;11.150;2022-11-25T11:14:49;5.30;;;3.70;;
68583;SDS011;55557;49.220;11.150;2022-11-25T11:17:34;8.20;;;4.73;;
68583;SDS011;55557;49.220;11.150;2022-11-25T11:22:32;6.07;;;4.43;;
68583;SDS011;55557;49.220;11.150;2022-11-25T11:27:54;7.57;;;4.73;;
68583;SDS011;55557;49.220;11.150;2022-11-25T11:30:22;10.47;;;5.27;;
68583;SDS011;55557;49.220;11.150;2022-11-25T11:33:02;8.53;;;4.47;;
68583;SDS011;55557;49.220;11.150;2022-11-25T11:38:31;7.50;;;5.17;;
68583;SDS011;55557;49.220;11.150;2022-11-25T11:41:41;6.83;;;4.80;;
68583;SDS011;55557;49.220;11.150;2022-11-25T11:44:21;6.30;;;4.47;;
68583;SDS011;55557;49.220;11.150;2022-11-25T11:54:59;8.90;;;5.10;;
68583;SDS011;55557;49.220;11.150;2022-11-25T11:57:42;8.33;;;3.80;;
68583;SDS011;55557;49.220;11.150;2022-11-25T12:00:13;8.13;;;5.53;;
68583;SDS011;55557;49.220;11.150;2022-11-25T12:13:34;8.80;;;4.30;;
68583;SDS011;55557;49.220;11.150;2022-11-25T12:24:00;11.97;;;3.83;;
68583;SDS011;55557;49.220;11.150;2022-11-25T12:26:50;9.80;;;3.60;;
68583;SDS011;55557;49.220;11.150;2022-11-25T12:35:02;13.83;;;5.07;;
68583;SDS011;55557;49.220;11.150;2022-11-25T12:37:31;12.27;;;6.80;;
68583;SDS011;55557;49.220;11.150;2022-11-25T12:40:03;14.53;;;8.80;;
68583;SDS011;55557;49.220;11.150;2022-11-25T12:42:32;11.27;;;6.40;;
68583;SDS011;55557;49.220;11.150;2022-11-25T12:45:03;14.67;;;6.43;;
68583;SDS011;55557;49.220;11.150;2022-11-25T12:47:30;14.00;;;7.47;;
68583;SDS011;55557;49.220;11.150;2022-11-25T12:49:56;11.13;;;5.30;;
68583;SDS011;55557;49.220;11.150;2022-11-25T12:55:09;6.77;;;4.23;;
68583;SDS011;55557;49.220;11.150;2022-11-25T12:57:57;10.03;;;4.40;;
68583;SDS011;55557;49.220;11.150;2022-11-25T13:00:50;5.90;;;3.93;;
68583;SDS011;55557;49.220;11.150;2022-11-25T13:16:21;5.17;;;2.93;;
68583;SDS011;55557;49.220;11.150;2022-11-25T13:18:48;7.67;;;4.70;;
68583;SDS011;55557;49.220;11.150;2022-11-25T13:21:15;7.17;;;3.67;;
68583;SDS011;55557;49.220;11.150;2022-11-25T13:23:48;3.83;;;3.33;;
68583;SDS011;55557;49.220;11.150;2022-11-25T13:28:56;7.73;;;5.37;;
68583;SDS011;55557;49.220;11.150;2022-11-25T13:36:16;24.17;;;12.47;;
68583;SDS011;55557;49.220;11.150;2022-11-25T13:48:54;8.00;;;5.47;;
68583;SDS011;55557;49.220;11.150;2022-11-25T13:51:21;6.17;;;4.10;;
68583;SDS011;55557;49.220;11.150;2022-11-25T13:53:49;7.90;;;4.50;;
68583;SDS011;55557;49.220;11.150;2022-11-25T13:56:23;8.50;;;4.70;;
68583;SDS011;55557;49.220;11.150;2022-11-25T14:01:56;7.77;;;5.40;;
68583;SDS011;55557;49.220;11.150;2022-11-25T14:07:11;12.87;;;7.57;;
68583;SDS011;55557;49.220;11.150;2022-11-25T14:12:21;8.10;;;6.43;;
68583;SDS011;55557;49.220;11.150;2022-11-25T14:14:55;11.23;;;6.50;;
68583;SDS011;55557;49.220;11.150;2022-11-25T14:17:37;14.80;;;7.33;;
68583;SDS011;55557;49.220;11.150;2022-11-25T14:25:25;20.23;;;11.97;;
68583;SDS011;55557;49.220;11.150;2022-11-25T14:28:19;13.13;;;9.27;;
68583;SDS011;55557;49.220;11.150;2022-11-25T14:30:48;16.03;;;9.23;;
68583;SDS011;55557;49.220;11.150;2022-11-25T14:33:16;14.07;;;9.10;;
68583;SDS011;55557;49.220;11.150;2022-11-25T14:35:51;11.23;;;7.10;;
68583;SDS011;55557;49.220;11.150;2022-11-25T14:38:19;8.47;;;6.53;;
68583;SDS011;55557;49.220;11.150;2022-11-25T14:43:18;11.80;;;7.17;;
68583;SDS011;55557;49.220;11.150;2022-11-25T14:45:45;15.33;;;10.03;;
68583;SDS011;55557;49.220;11.150;2022-11-25T14:48:12;18.10;;;10.60;;
68583;SDS011;55557;49.220;11.150;2022-11-25T14:50:39;26.03;;;14.40;;
68583;SDS011;55557;49.220;11.150;2022-11-25T14:53:05;23.93;;;11.20;;
68583;SDS011;55557;49.220;11.150;2022-11-25T14:55:32;23.80;;;11.50;;
68583;SDS011;55557;49.220;11.150;2022-11-25T14:57:58;25.07;;;12.60;;
68583;SDS011;55557;49.220;11.150;2022-11-25T15:00:24;24.60;;;13.43;;
68583;SDS011;55557;49.220;11.150;2022-11-25T15:02:55;19.50;;;10.63;;
68583;SDS011;55557;49.220;11.150;2022-11-25T15:05:22;25.80;;;12.43;;
68583;SDS011;55557;49.220;11.150;2022-11-25T15:12:54;30.83;;;15.63;;
68583;SDS011;55557;49.220;11.150;2022-11-25T15:15:20;22.20;;;12.47;;
68583;SDS011;55557;49.220;11.150;2022-11-25T15:17:46;17.57;;;10.40;;
68583;SDS011;55557;49.220;11.150;2022-11-25T15:20:13;20.37;;;10.40;;
68583;SDS011;55557;49.220;11.150;2022-11-25T15:22:51;12.87;;;8.67;;
68583;SDS011;55557;49.220;11.150;2022-11-25T15:25:18;17.57;;;10.03;;
68583;SDS011;55557;49.220;11.150;2022-11-25T15:27:45;13.97;;;9.47;;
68583;SDS011;55557;49.220;11.150;2022-11-25T15:30:21;21.23;;;12.90;;
68583;SDS011;55557;49.220;11.150;2022-11-25T15:32:48;25.20;;;13.53;;
68583;SDS011;55557;49.220;11.150;2022-11-25T15:35:15;25.07;;;13.43;;
68583;SDS011;55557;49.220;11.150;2022-11-25T15:37:42;25.33;;;14.27;;
68583;SDS011;55557;49.220;11.150;2022-11-25T15:42:53;22.63;;;12.70;;
68583;SDS011;55557;49.220;11.150;2022-11-25T15:45:19;22.37;;;13.97;;
68583;SDS011;55557;49.220;11.150;2022-11-25T15:47:45;22.17;;;14.67;;
68583;SDS011;55557;49.220;11.150;2022-11-25T15:50:17;24.13;;;14.57;;
68583;SDS011;55557;49.220;11.150;2022-11-25T15:52:45;20.70;;;11.90;;
68583;SDS011;55557;49.220;11.150;2022-11-25T15:55:25;19.90;;;11.03;;
68583;SDS011;55557;49.220;11.150;2022-11-25T15:57:53;23.33;;;9.27;;
68583;SDS011;55557;49.220;11.150;2022-11-25T16:00:21;16.20;;;7.87;;
68583;SDS011;55557;49.220;11.150;2022-11-25T16:02:54;13.67;;;9.37;;
68583;SDS011;55557;49.220;11.150;2022-11-25T16:05:23;15.40;;;8.53;;
68583;SDS011;55557;49.220;11.150;2022-11-25T16:10:20;18.07;;;10.33;;
68583;SDS011;55557;49.220;11.150;2022-11-25T16:18:16;14.00;;;9.17;;
68583;SDS011;55557;49.220;11.150;2022-11-25T16:20:49;15.00;;;8.60;;
68583;SDS011;55557;49.220;11.150;2022-11-25T16:23:18;17.73;;;8.07;;
68583;SDS011;55557;49.220;11.150;2022-11-25T16:25:48;11.07;;;8.73;;
68583;SDS011;55557;49.220;11.150;2022-11-25T16:28:19;14.40;;;9.97;;
68583;SDS011;55557;49.220;11.150;2022-11-25T16:30:45;11.80;;;9.03;;
68583;SDS011;55557;49.220;11.150;2022-11-25T16:33:11;19.97;;;8.13;;
68583;SDS011;55557;49.220;11.150;2022-11-25T16:35:37;15.43;;;7.90;;
68583;SDS011;55557;49.220;11.150;2022-11-25T16:38:03;13.10;;;8.63;;
68583;SDS011;55557;49.220;11.150;2022-11-25T16:40:29;11.73;;;7.27;;
68583;SDS011;55557;49.220;11.150;2022-11-25T16:42:56;13.40;;;7.57;;
68583;SDS011;55557;49.220;11.150;2022-11-25T16:45:22;17.53;;;8.43;;
68583;SDS011;55557;49.220;11.150;2022-11-25T16:47:49;15.00;;;8.13;;
68583;SDS011;55557;49.220;11.150;2022-11-25T16:50:15;14.50;;;10.37;;
68583;SDS011;55557;49.220;11.150;2022-11-25T16:52:41;15.53;;;9.90;;
68583;SDS011;55557;49.220;11.150;2022-11-25T16:55:08;20.23;;;12.47;;